Search for airport 
image banner adimage banner adimage banner ad
image banner ad

45CL - Hell'er High Water

Located in Zenia, United States

ICAO - 45CL, IATA -

Data provided by Airmate  

General information

Coordinates: N40°8'36" W123°23'54"
Elevation is 2493 feet MSL.
Magnetic variation is 17° East
View others Airports in California

Operational data

Special qualification required
Current time UTC:
Current local time:
Weather at : KFOT - Rohnerville ( 77 km )
METAR: KFOT 221410Z AUTO 00000KT 1 1/2SM OVC003 10/10 A2992 RMK AO1
View NOTAMs / SUP AIP / TFR affecting this airport [VIEW]
Communications frequencies: [VIEW]

Runways:

RWY identifierQFULength (ft)Width (ft)SurfaceLDA (ft)
18260050EARTH
36260050EARTH

Airport contact information

Address: Zenia United States

Satellite view of 45CL